Time;durP1;ratioP1;P1;durP2;ratioP2;P2;SDS_P1;SDS_P2;PMS_P1;PMS_P2;Temp;Humidity;BMP_temperature;BMP_pressure;BME280_temperature;BME280_humidity;BME280_pressure;Samples;Min_cycle;Max_cycle;Signal;HPM_P1;HPM_P2
2022/07/27 00:00:58;;;;;;;3.80;2.42;;;25.90;55.10;;;;;;5003090;28;20021;-49
2022/07/27 00:03:24;;;;;;;3.67;2.75;;;25.90;55.10;;;;;;5003061;28;20018;-49
2022/07/27 00:05:50;;;;;;;4.80;2.25;;;25.90;55.20;;;;;;5002199;28;20032;-48
2022/07/27 00:08:19;;;;;;;3.85;2.45;;;25.90;55.20;;;;;;5002714;28;20041;-49
2022/07/27 00:10:45;;;;;;;5.22;2.40;;;25.90;55.30;;;;;;5003252;28;20030;-49
2022/07/27 00:13:11;;;;;;;3.75;2.50;;;25.90;55.30;;;;;;5003362;28;20044;-50
2022/07/27 00:15:36;;;;;;;3.70;2.38;;;25.90;55.30;;;;;;5002884;28;20034;-49
2022/07/27 00:18:02;;;;;;;4.28;2.25;;;25.90;55.30;;;;;;5003622;28;20028;-48
2022/07/27 00:20:30;;;;;;;4.25;2.53;;;25.90;55.30;;;;;;5002317;28;20028;-48
2022/07/27 00:22:56;;;;;;;3.35;2.30;;;25.90;55.30;;;;;;5002961;28;20216;-48
2022/07/27 00:25:23;;;;;;;3.35;2.22;;;25.90;55.20;;;;;;5002632;28;20037;-50
2022/07/27 00:27:49;;;;;;;3.90;2.50;;;25.90;55.20;;;;;;5002513;28;20539;-49
2022/07/27 00:30:15;;;;;;;4.75;3.03;;;25.90;55.30;;;;;;5002898;28;20701;-48
2022/07/27 00:32:41;;;;;;;3.80;2.75;;;25.90;55.30;;;;;;5002225;28;21288;-49
2022/07/27 00:35:07;;;;;;;3.55;2.92;;;25.90;55.30;;;;;;5002057;28;20033;-49
2022/07/27 00:37:33;;;;;;;4.38;3.00;;;25.90;55.40;;;;;;4998473;28;20524;-49
2022/07/27 00:39:58;;;;;;;5.47;3.10;;;25.90;55.30;;;;;;5002587;28;20034;-50
2022/07/27 00:42:28;;;;;;;5.45;3.17;;;25.90;55.30;;;;;;5003442;28;20590;-49
2022/07/27 00:44:55;;;;;;;4.50;3.20;;;25.90;55.30;;;;;;5001420;28;20022;-49
2022/07/27 00:47:21;;;;;;;4.45;3.00;;;25.90;55.20;;;;;;5003289;28;20548;-50
2022/07/27 00:49:47;;;;;;;3.85;3.15;;;25.90;55.20;;;;;;5002258;28;20449;-48
2022/07/27 00:52:14;;;;;;;4.78;3.33;;;25.90;55.20;;;;;;5000535;28;20029;-49
2022/07/27 00:54:41;;;;;;;4.47;3.15;;;25.90;55.20;;;;;;5001218;28;20021;-48
2022/07/27 00:57:10;;;;;;;4.53;3.60;;;25.90;55.20;;;;;;5000867;28;20037;-49
2022/07/27 00:59:36;;;;;;;5.25;3.72;;;25.90;55.30;;;;;;5001271;28;20018;-49
2022/07/27 01:02:03;;;;;;;4.40;3.88;;;25.90;55.30;;;;;;5001643;28;20034;-49
2022/07/27 01:04:29;;;;;;;4.63;3.53;;;25.90;55.30;;;;;;4999814;28;20544;-49
2022/07/27 01:06:55;;;;;;;5.07;4.22;;;25.90;55.20;;;;;;5001371;28;20037;-49
2022/07/27 01:12:07;;;;;;;5.18;3.60;;;25.90;55.20;;;;;;5002255;28;20736;-49
2022/07/27 01:14:33;;;;;;;6.32;3.63;;;25.90;55.30;;;;;;5002440;28;20026;-48
2022/07/27 01:16:59;;;;;;;4.68;3.40;;;25.90;55.30;;;;;;5001133;28;20030;-49
2022/07/27 01:19:25;;;;;;;4.15;2.88;;;25.90;55.20;;;;;;5002013;28;20028;-50
2022/07/27 01:21:50;;;;;;;3.55;2.42;;;25.80;55.30;;;;;;5002253;28;20521;-48
2022/07/27 01:24:16;;;;;;;3.58;2.20;;;25.80;55.50;;;;;;4998905;28;20125;-49
2022/07/27 01:26:42;;;;;;;3.15;2.20;;;25.80;55.40;;;;;;4997501;28;20026;-49
2022/07/27 01:29:08;;;;;;;2.90;2.00;;;25.80;55.40;;;;;;5000250;28;20441;-49
2022/07/27 01:31:33;;;;;;;3.72;2.22;;;25.80;55.30;;;;;;5002128;28;20089;-49
2022/07/27 01:33:59;;;;;;;3.38;2.00;;;25.80;55.20;;;;;;5002741;28;20105;-49
2022/07/27 01:36:25;;;;;;;4.00;2.10;;;25.80;54.80;;;;;;5001891;28;20064;-50
2022/07/27 01:38:51;;;;;;;4.10;1.90;;;25.70;55.40;;;;;;5000188;28;20129;-49
2022/07/27 01:41:17;;;;;;;3.50;2.15;;;25.70;55.50;;;;;;5001315;28;20726;-49
2022/07/27 01:43:43;;;;;;;4.13;1.98;;;25.70;55.30;;;;;;5001863;28;20520;-48
2022/07/27 01:46:09;;;;;;;3.08;1.60;;;25.70;55.40;;;;;;5000791;28;20022;-50
2022/07/27 01:48:35;;;;;;;2.85;1.60;;;25.70;55.30;;;;;;5001282;28;20437;-49
2022/07/27 01:51:00;;;;;;;2.92;1.67;;;25.80;55.20;;;;;;5001696;28;20026;-48
2022/07/27 01:53:26;;;;;;;3.17;1.85;;;25.80;55.20;;;;;;5000744;28;20037;-48
2022/07/27 01:55:52;;;;;;;3.10;1.60;;;25.70;55.20;;;;;;5001297;28;20030;-48
2022/07/27 01:58:18;;;;;;;2.92;1.50;;;25.70;55.20;;;;;;5001701;28;20092;-49
2022/07/27 02:00:44;;;;;;;3.17;1.98;;;25.70;55.10;;;;;;5001391;28;20697;-49
2022/07/27 02:03:10;;;;;;;3.67;1.95;;;25.70;55.20;;;;;;5000758;28;20533;-50
2022/07/27 02:05:37;;;;;;;3.15;1.95;;;25.70;55.20;;;;;;5000886;28;20104;-49
2022/07/27 02:08:07;;;;;;;3.22;2.00;;;25.70;55.20;;;;;;5001966;28;20060;-49
2022/07/27 02:10:34;;;;;;;3.85;2.33;;;25.70;55.20;;;;;;5005021;28;20022;-49
2022/07/27 02:13:00;;;;;;;4.20;2.08;;;25.80;55.20;;;;;;5005277;28;20030;-49
2022/07/27 02:15:27;;;;;;;3.75;2.17;;;25.70;55.30;;;;;;5004153;28;20172;-49
2022/07/27 02:17:54;;;;;;;3.42;2.03;;;25.80;55.20;;;;;;5005360;28;20100;-48
2022/07/27 02:20:23;;;;;;;3.13;2.13;;;25.70;55.20;;;;;;5020915;28;20028;-50
2022/07/27 02:22:49;;;;;;;3.75;2.38;;;25.70;55.20;;;;;;5002963;28;20018;-49
2022/07/27 02:25:17;;;;;;;3.83;1.98;;;25.80;55.20;;;;;;5005395;28;20763;-50
2022/07/27 02:27:44;;;;;;;3.47;2.28;;;25.80;55.10;;;;;;5003874;28;20026;-49
2022/07/27 02:30:12;;;;;;;4.15;2.25;;;25.70;55.10;;;;;;5004590;28;20026;-48
2022/07/27 02:32:39;;;;;;;3.03;2.10;;;25.70;55.10;;;;;;5004744;28;20032;-49
2022/07/27 02:35:05;;;;;;;3.30;1.98;;;25.70;55.10;;;;;;5005093;28;20404;-49
2022/07/27 02:37:31;;;;;;;3.55;2.08;;;25.70;55.10;;;;;;5003771;28;20122;-49
2022/07/27 02:39:56;;;;;;;3.05;1.90;;;25.80;55.10;;;;;;5004694;28;20109;-49
2022/07/27 02:42:22;;;;;;;3.70;1.98;;;25.70;55.10;;;;;;5003166;28;20025;-48
2022/07/27 02:44:48;;;;;;;3.22;2.05;;;25.70;55.10;;;;;;5005488;28;20026;-49
2022/07/27 02:47:14;;;;;;;3.25;1.88;;;25.70;55.10;;;;;;5005062;28;20033;-50
2022/07/27 02:49:40;;;;;;;3.47;2.10;;;25.70;55.10;;;;;;5004615;28;20105;-48
2022/07/27 02:52:06;;;;;;;3.50;1.60;;;25.70;55.00;;;;;;5004364;28;20049;-49
2022/07/27 02:54:31;;;;;;;4.20;1.90;;;25.70;55.00;;;;;;5002610;28;20038;-50
2022/07/27 02:56:59;;;;;;;3.00;1.80;;;25.80;55.00;;;;;;5003608;28;20064;-49
2022/07/27 02:59:25;;;;;;;2.45;1.50;;;25.70;54.90;;;;;;5002253;28;20698;-49
2022/07/27 03:01:51;;;;;;;2.67;1.55;;;25.70;54.90;;;;;;5004286;28;20052;-48
2022/07/27 03:04:17;;;;;;;2.42;1.40;;;25.70;54.80;;;;;;5004374;28;20058;-49
2022/07/27 03:06:43;;;;;;;3.20;1.80;;;25.70;54.80;;;;;;5004329;28;20115;-49
2022/07/27 03:09:09;;;;;;;3.80;1.50;;;25.80;54.80;;;;;;5002678;28;20462;-48
2022/07/27 03:11:35;;;;;;;2.63;1.70;;;25.70;54.80;;;;;;5004515;28;20029;-48
2022/07/27 03:14:01;;;;;;;2.97;1.70;;;25.70;54.70;;;;;;5004332;28;20670;-48
2022/07/27 03:16:26;;;;;;;2.55;1.48;;;25.70;54.70;;;;;;5002502;28;20049;-49
2022/07/27 03:18:52;;;;;;;3.53;1.58;;;25.80;54.60;;;;;;5004188;28;20025;-50
2022/07/27 03:21:18;;;;;;;2.90;1.40;;;25.70;54.60;;;;;;5004427;28;20077;-49
2022/07/27 03:23:43;;;;;;;3.38;1.70;;;25.70;54.60;;;;;;5002480;28;20037;-50
2022/07/27 03:26:09;;;;;;;2.63;1.30;;;25.70;54.50;;;;;;5003398;28;20029;-49
2022/07/27 03:28:35;;;;;;;2.90;1.52;;;25.70;54.50;;;;;;5003988;28;20041;-50
2022/07/27 03:31:00;;;;;;;2.95;1.40;;;25.70;54.40;;;;;;4999878;28;20030;-50
2022/07/27 03:33:26;;;;;;;2.10;1.17;;;25.70;54.40;;;;;;5003293;28;20060;-50
2022/07/27 03:35:52;;;;;;;2.67;1.20;;;25.70;54.40;;;;;;5002889;28;20050;-48
2022/07/27 03:38:17;;;;;;;3.35;1.75;;;25.70;54.30;;;;;;5002465;28;20701;-49
2022/07/27 03:40:44;;;;;;;2.20;1.30;;;25.70;54.30;;;;;;5003932;28;20441;-49
2022/07/27 03:43:10;;;;;;;2.17;1.20;;;25.70;54.30;;;;;;5003403;28;20668;-49
2022/07/27 03:45:36;;;;;;;2.45;1.52;;;25.70;54.20;;;;;;5003148;28;20054;-48
2022/07/27 03:48:02;;;;;;;2.35;1.30;;;25.70;54.20;;;;;;5001741;28;20038;-49
2022/07/27 03:50:28;;;;;;;4.38;1.20;;;25.70;54.20;;;;;;5003528;28;20547;-48
2022/07/27 03:52:54;;;;;;;2.58;1.50;;;25.70;54.20;;;;;;5001352;28;20030;-49
2022/07/27 03:55:20;;;;;;;2.30;1.17;;;25.70;54.20;;;;;;5003808;28;20474;-49
2022/07/27 03:57:46;;;;;;;2.15;1.17;;;25.70;54.10;;;;;;5005358;28;20056;-49
2022/07/27 04:00:13;;;;;;;2.60;1.30;;;25.70;54.00;;;;;;5002966;28;20045;-50
2022/07/27 04:02:40;;;;;;;2.58;1.20;;;25.70;53.90;;;;;;5003755;28;20034;-49
2022/07/27 04:05:06;;;;;;;2.10;1.15;;;25.70;54.00;;;;;;5003124;28;20069;-50
2022/07/27 04:07:32;;;;;;;2.97;0.90;;;25.70;53.90;;;;;;5001368;28;20056;-49
2022/07/27 04:09:58;;;;;;;2.05;1.20;;;25.70;53.90;;;;;;5003507;28;20025;-49
2022/07/27 04:12:23;;;;;;;1.95;1.17;;;25.70;53.80;;;;;;5002987;28;20056;-50
2022/07/27 04:14:49;;;;;;;2.33;1.50;;;25.70;53.80;;;;;;5003239;28;20030;-48
2022/07/27 04:17:15;;;;;;;1.83;1.17;;;25.70;53.80;;;;;;5000851;28;20037;-49
2022/07/27 04:19:41;;;;;;;2.03;1.23;;;25.70;53.90;;;;;;5002604;28;20030;-49
2022/07/27 04:22:06;;;;;;;2.83;1.35;;;25.70;53.80;;;;;;5000880;28;20417;-49
2022/07/27 04:24:32;;;;;;;2.70;1.25;;;25.70;53.80;;;;;;5000996;28;20026;-49
2022/07/27 04:26:58;;;;;;;2.60;1.35;;;25.70;53.80;;;;;;4999807;28;20407;-49
2022/07/27 04:29:24;;;;;;;2.45;1.30;;;25.70;53.90;;;;;;5001762;28;20083;-48
2022/07/27 04:31:49;;;;;;;2.70;1.60;;;25.70;53.90;;;;;;5002577;28;20695;-49
2022/07/27 04:34:15;;;;;;;2.78;1.25;;;25.70;53.80;;;;;;5002312;28;20105;-50
2022/07/27 04:36:41;;;;;;;3.30;1.35;;;25.70;53.90;;;;;;5000263;28;20026;-49
2022/07/27 04:39:06;;;;;;;2.72;1.38;;;25.70;53.80;;;;;;5000444;28;20026;-50
2022/07/27 04:41:32;;;;;;;2.75;1.30;;;25.70;53.80;;;;;;4999073;28;20114;-49
2022/07/27 04:43:59;;;;;;;2.25;1.20;;;25.60;53.80;;;;;;5002202;28;20018;-49
2022/07/27 04:46:26;;;;;;;3.22;1.30;;;25.70;53.70;;;;;;5000790;28;20112;-49
2022/07/27 04:48:51;;;;;;;2.28;1.38;;;25.70;53.70;;;;;;5002478;28;20037;-49
2022/07/27 04:51:17;;;;;;;2.45;1.33;;;25.70;53.60;;;;;;5002231;28;20018;-50
2022/07/27 04:53:43;;;;;;;4.85;1.60;;;25.70;53.70;;;;;;4997132;28;20038;-48
2022/07/27 04:56:09;;;;;;;2.58;1.38;;;25.70;53.70;;;;;;5002415;28;20058;-50
2022/07/27 04:58:35;;;;;;;3.10;1.98;;;25.70;53.70;;;;;;5001979;28;20422;-49
2022/07/27 05:01:01;;;;;;;2.58;1.60;;;25.70;53.70;;;;;;5002223;28;20028;-49
2022/07/27 05:03:27;;;;;;;3.60;1.90;;;25.70;53.80;;;;;;5001437;28;20018;-50
2022/07/27 05:05:52;;;;;;;3.25;2.00;;;25.70;53.80;;;;;;5002295;28;20030;-48
2022/07/27 05:08:18;;;;;;;4.20;2.75;;;25.70;53.90;;;;;;4999832;28;20493;-49
2022/07/27 05:10:45;;;;;;;3.58;2.08;;;25.70;54.00;;;;;;4999025;28;20029;-50
2022/07/27 05:13:10;;;;;;;3.95;2.17;;;25.70;54.10;;;;;;5001414;28;20106;-48
2022/07/27 05:15:37;;;;;;;4.13;2.30;;;25.70;54.20;;;;;;4999430;28;20107;-49
2022/07/27 05:18:03;;;;;;;5.78;2.47;;;25.70;54.20;;;;;;4998816;28;20018;-49
2022/07/27 05:20:29;;;;;;;4.30;2.67;;;25.70;54.20;;;;;;5001120;28;20029;-49
2022/07/27 05:22:54;;;;;;;3.80;2.20;;;25.60;54.40;;;;;;5000358;28;20402;-49
2022/07/27 05:25:24;;;;;;;3.42;2.00;;;25.70;54.20;;;;;;5001163;28;20481;-49
2022/07/27 05:27:50;;;;;;;3.95;2.50;;;25.60;54.40;;;;;;5002720;28;20053;-48
2022/07/27 05:30:16;;;;;;;3.45;2.20;;;25.60;54.40;;;;;;5000636;28;20029;-49
2022/07/27 05:32:42;;;;;;;3.13;2.00;;;25.60;54.20;;;;;;5001423;28;20038;-50
2022/07/27 05:35:08;;;;;;;3.28;2.08;;;25.60;54.00;;;;;;5001587;28;20030;-49
2022/07/27 05:37:33;;;;;;;3.50;1.60;;;25.60;54.20;;;;;;5001415;28;20026;-49
2022/07/27 05:39:59;;;;;;;4.20;1.98;;;25.50;54.50;;;;;;5002229;28;20612;-49
2022/07/27 05:42:25;;;;;;;3.03;1.92;;;25.50;54.70;;;;;;5003512;28;20083;-49
2022/07/27 05:44:54;;;;;;;3.42;2.00;;;25.50;54.70;;;;;;5005022;28;20085;-49
2022/07/27 05:47:20;;;;;;;4.68;1.63;;;25.50;55.00;;;;;;5000091;28;20037;-49
2022/07/27 05:49:46;;;;;;;3.40;1.90;;;25.60;54.90;;;;;;5005142;28;20026;-49
2022/07/27 05:52:12;;;;;;;4.80;1.95;;;25.50;55.00;;;;;;5004394;28;20021;-49
2022/07/27 05:54:38;;;;;;;3.78;2.03;;;25.60;54.70;;;;;;5001160;28;20104;-50
2022/07/27 05:57:04;;;;;;;3.42;1.88;;;25.60;55.00;;;;;;5002343;28;20029;-49
2022/07/27 05:59:31;;;;;;;4.00;2.05;;;25.60;55.10;;;;;;5003988;28;20029;-49
2022/07/27 06:01:58;;;;;;;4.63;1.90;;;25.60;54.90;;;;;;5003702;28;20394;-48
2022/07/27 06:04:24;;;;;;;3.05;1.73;;;25.60;54.90;;;;;;5004827;28;20033;-50
2022/07/27 06:09:35;;;;;;;3.65;2.40;;;25.60;55.00;;;;;;4998778;28;20220;-49
2022/07/27 06:12:01;;;;;;;3.60;2.00;;;25.60;55.60;;;;;;5003614;28;20670;-50
2022/07/27 06:14:26;;;;;;;2.97;1.92;;;25.60;56.00;;;;;;5001621;28;20034;-48
2022/07/27 06:16:52;;;;;;;3.20;1.85;;;25.70;56.00;;;;;;4999321;28;20037;-50
2022/07/27 06:19:18;;;;;;;3.92;1.92;;;25.70;56.00;;;;;;5002499;28;20058;-47
2022/07/27 06:21:44;;;;;;;3.58;2.10;;;25.70;55.60;;;;;;5005101;28;20037;-49
2022/07/27 06:24:10;;;;;;;3.42;2.20;;;25.70;56.20;;;;;;5004323;28;20581;-50
2022/07/27 06:26:36;;;;;;;4.15;2.42;;;25.70;56.00;;;;;;5011114;28;20030;-50
2022/07/27 06:29:02;;;;;;;3.78;2.20;;;25.80;56.30;;;;;;5006399;28;20104;-50
2022/07/27 06:31:29;;;;;;;2.92;2.05;;;25.80;56.00;;;;;;5004366;28;20049;-50
2022/07/27 06:33:55;;;;;;;4.97;2.47;;;25.80;55.50;;;;;;5005105;28;20513;-49
2022/07/27 06:36:22;;;;;;;3.25;2.20;;;25.80;55.50;;;;;;5004275;28;20038;-49
2022/07/27 06:38:48;;;;;;;3.38;2.15;;;25.80;55.50;;;;;;5004136;28;20033;-50
2022/07/27 06:41:14;;;;;;;3.22;2.05;;;25.80;55.40;;;;;;5004052;28;20022;-48
2022/07/27 06:43:40;;;;;;;3.35;2.15;;;25.80;55.10;;;;;;5004883;28;20018;-50
2022/07/27 06:46:11;;;;;;;3.92;2.20;;;25.80;55.20;;;;;;5002647;28;20108;-49
2022/07/27 06:48:40;;;;;;;9.57;2.95;;;25.90;55.20;;;;;;5004736;28;20070;-49
2022/07/27 06:51:07;;;;;;;5.25;3.05;;;25.90;55.20;;;;;;5001735;28;20030;-50
2022/07/27 06:53:33;;;;;;;5.97;2.60;;;25.90;55.20;;;;;;5002337;28;20038;-48
2022/07/27 06:56:02;;;;;;;6.10;2.83;;;25.90;55.10;;;;;;5002755;28;20022;-48
2022/07/27 06:58:30;;;;;;;4.00;2.53;;;25.90;55.00;;;;;;5011692;28;20482;-50
2022/07/27 07:00:57;;;;;;;4.05;2.58;;;26.00;55.50;;;;;;4999403;28;20026;-49
2022/07/27 07:03:23;;;;;;;4.60;2.63;;;25.90;54.90;;;;;;5002853;28;20026;-49
2022/07/27 07:05:49;;;;;;;3.95;2.90;;;25.90;55.00;;;;;;5002940;28;20092;-50
2022/07/27 07:08:15;;;;;;;3.92;2.95;;;26.00;56.10;;;;;;4998963;28;20030;-49
2022/07/27 07:10:43;;;;;;;4.43;2.90;;;26.00;55.30;;;;;;4998119;28;20624;-49
2022/07/27 07:13:09;;;;;;;4.93;3.00;;;26.00;55.20;;;;;;5000656;28;20451;-48
2022/07/27 07:15:36;;;;;;;4.32;3.30;;;26.00;55.20;;;;;;5004226;28;20101;-49
2022/07/27 07:18:03;;;;;;;4.35;3.17;;;26.00;55.20;;;;;;5003771;28;20038;-48
2022/07/27 07:20:29;;;;;;;4.43;3.22;;;26.00;55.10;;;;;;5003239;28;20014;-49
2022/07/27 07:22:56;;;;;;;4.88;3.22;;;26.00;55.10;;;;;;4988544;28;20089;-50
2022/07/27 07:25:22;;;;;;;4.47;3.25;;;26.10;55.00;;;;;;5000207;28;20022;-48
2022/07/27 07:27:48;;;;;;;4.22;3.17;;;26.10;55.00;;;;;;5002939;28;20021;-48
2022/07/27 07:30:14;;;;;;;4.07;3.05;;;26.00;55.00;;;;;;5002239;28;20033;-47
2022/07/27 07:32:40;;;;;;;5.88;3.50;;;26.10;55.00;;;;;;5000558;28;20102;-49
2022/07/27 07:35:06;;;;;;;6.30;3.22;;;26.10;55.90;;;;;;4999745;28;20132;-49
2022/07/27 07:37:32;;;;;;;4.47;3.67;;;26.10;55.90;;;;;;5002263;28;20038;-49
2022/07/27 07:39:58;;;;;;;5.18;4.13;;;26.10;55.40;;;;;;5002162;28;20068;-49
2022/07/27 07:42:25;;;;;;;4.78;3.88;;;26.10;55.50;;;;;;5002313;28;20505;-47
2022/07/27 07:44:51;;;;;;;4.38;3.83;;;26.10;55.30;;;;;;5001465;28;20034;-48
2022/07/27 07:47:16;;;;;;;5.78;4.47;;;26.10;55.30;;;;;;5003462;28;20042;-49
2022/07/27 07:49:42;;;;;;;5.20;4.28;;;26.20;55.90;;;;;;5003106;28;20026;-48
2022/07/27 07:52:08;;;;;;;5.63;4.28;;;26.10;55.80;;;;;;5000260;28;20039;-46
2022/07/27 07:54:33;;;;;;;5.43;4.20;;;26.20;55.50;;;;;;5001523;28;20038;-46
2022/07/27 07:56:59;;;;;;;7.72;4.00;;;26.20;55.20;;;;;;5003246;28;20026;-49
2022/07/27 07:59:25;;;;;;;5.60;4.68;;;26.20;55.40;;;;;;5020496;28;20234;-49
2022/07/27 08:01:51;;;;;;;5.00;4.45;;;26.20;56.00;;;;;;5023719;28;20021;-48
2022/07/27 08:04:17;;;;;;;6.20;5.60;;;26.20;55.90;;;;;;5022751;28;20101;-49
2022/07/27 08:06:43;;;;;;;5.75;5.15;;;26.20;56.30;;;;;;5023573;28;20033;-49
2022/07/27 08:09:08;;;;;;;5.75;4.90;;;26.30;56.10;;;;;;5012053;28;20037;-49
2022/07/27 08:11:34;;;;;;;6.20;4.57;;;26.30;56.10;;;;;;4997149;28;20023;-49
2022/07/27 08:14:02;;;;;;;5.88;4.75;;;26.30;56.10;;;;;;4984418;28;20026;-48
2022/07/27 08:16:28;;;;;;;5.35;4.63;;;26.30;55.60;;;;;;4999094;28;20028;-49
2022/07/27 08:18:53;;;;;;;5.63;5.00;;;26.30;56.00;;;;;;5000856;28;20022;-48
2022/07/27 08:21:19;;;;;;;5.75;4.90;;;26.30;55.70;;;;;;5002001;28;20435;-48
2022/07/27 08:23:45;;;;;;;6.75;4.88;;;26.30;55.90;;;;;;5003258;28;20540;-48
2022/07/27 08:26:10;;;;;;;6.75;5.38;;;26.30;55.80;;;;;;5007231;28;20033;-48
2022/07/27 08:28:36;;;;;;;6.15;5.55;;;26.40;56.10;;;;;;5005188;28;20057;-48
2022/07/27 08:31:01;;;;;;;5.95;5.10;;;26.30;55.70;;;;;;5017561;28;20029;-48
2022/07/27 08:33:27;;;;;;;6.10;5.25;;;26.30;55.60;;;;;;5002888;28;20026;-48
2022/07/27 08:35:53;;;;;;;6.75;5.10;;;26.30;55.30;;;;;;5003012;28;20029;-48
2022/07/27 08:38:19;;;;;;;5.75;5.10;;;26.40;55.40;;;;;;5002711;28;20116;-50
2022/07/27 08:40:46;;;;;;;6.18;5.50;;;26.40;55.50;;;;;;5002358;28;20034;-49
2022/07/27 08:43:14;;;;;;;5.75;5.18;;;26.40;55.50;;;;;;5003602;28;20034;-48
2022/07/27 08:45:40;;;;;;;6.57;5.88;;;26.40;56.10;;;;;;5002127;28;20037;-49
2022/07/27 08:48:10;;;;;;;6.50;5.90;;;26.40;55.60;;;;;;5000666;28;20022;-50
2022/07/27 08:50:36;;;;;;;6.38;5.72;;;26.40;55.80;;;;;;4983130;28;20621;-49
2022/07/27 08:53:06;;;;;;;6.45;5.68;;;26.50;55.60;;;;;;4984656;28;20034;-49
2022/07/27 08:55:40;;;;;;;6.57;5.90;;;26.40;55.00;;;;;;5002202;28;20513;-50
2022/07/27 08:58:07;;;;;;;7.40;6.10;;;26.40;55.30;;;;;;4982371;28;20034;-48
2022/07/27 09:00:35;;;;;;;6.32;5.57;;;26.40;55.30;;;;;;4983486;28;20022;-48
2022/07/27 09:03:01;;;;;;;6.88;5.85;;;26.40;55.30;;;;;;4981174;28;20018;-48
2022/07/27 09:05:28;;;;;;;5.72;5.13;;;26.50;55.70;;;;;;5001961;28;20037;-49
2022/07/27 09:07:53;;;;;;;8.88;6.38;;;26.50;55.60;;;;;;5001856;28;20107;-48
2022/07/27 09:10:32;;;;;;;7.95;6.45;;;26.50;55.50;;;;;;5002724;28;20054;-48
2022/07/27 09:12:58;;;;;;;6.85;6.20;;;26.50;55.20;;;;;;4999136;28;20101;-49
2022/07/27 09:15:24;;;;;;;6.93;6.15;;;26.50;55.00;;;;;;5000186;28;20018;-49
2022/07/27 09:17:50;;;;;;;7.10;6.03;;;26.50;54.90;;;;;;5001067;28;20111;-49
2022/07/27 09:20:18;;;;;;;7.20;6.00;;;26.50;54.70;;;;;;4991714;28;20073;-49
2022/07/27 09:22:49;;;;;;;6.80;6.05;;;26.50;54.60;;;;;;5001903;28;20129;-48
2022/07/27 09:25:17;;;;;;;6.75;6.05;;;26.50;54.80;;;;;;5001301;28;20018;-49
2022/07/27 09:27:48;;;;;;;8.95;6.47;;;26.50;54.50;;;;;;5005308;28;20109;-50
2022/07/27 09:30:17;;;;;;;7.40;6.68;;;26.50;54.50;;;;;;5002604;28;20022;-49
2022/07/27 09:32:56;;;;;;;6.65;6.00;;;26.50;54.30;;;;;;5001527;28;20069;-48
2022/07/27 09:35:32;;;;;;;7.63;6.28;;;26.50;54.20;;;;;;5002876;28;20083;-48
2022/07/27 09:38:23;;;;;;;7.13;6.43;;;26.50;54.20;;;;;;5003300;28;20026;-47
2022/07/27 09:41:02;;;;;;;8.80;8.00;;;26.50;54.20;;;;;;4976278;28;20053;-48
2022/07/27 09:43:28;;;;;;;7.35;6.65;;;26.50;54.00;;;;;;4983405;28;20110;-49
2022/07/27 09:46:03;;;;;;;8.90;8.00;;;26.50;54.00;;;;;;4982786;28;20113;-48
2022/07/27 09:48:34;;;;;;;7.90;7.00;;;26.50;53.90;;;;;;4983724;28;20092;-49
2022/07/27 09:51:06;;;;;;;9.27;8.02;;;26.50;53.70;;;;;;4983058;28;20022;-47
2022/07/27 09:53:33;;;;;;;7.93;6.78;;;26.50;53.90;;;;;;4986989;28;20037;-48
2022/07/27 09:56:08;;;;;;;8.80;7.95;;;26.50;53.80;;;;;;4999173;28;20715;-48
2022/07/27 09:58:43;;;;;;;7.35;6.65;;;26.50;53.90;;;;;;4995611;28;20483;-48
2022/07/27 10:01:18;;;;;;;8.02;7.22;;;26.50;54.00;;;;;;4997139;28;20026;-48
2022/07/27 10:03:44;;;;;;;9.00;7.63;;;26.50;54.00;;;;;;4994269;28;20815;-48
2022/07/27 10:06:11;;;;;;;8.63;7.82;;;26.50;54.10;;;;;;4999236;28;20029;-46
2022/07/27 10:08:38;;;;;;;8.65;7.72;;;26.50;54.10;;;;;;5001737;28;20050;-47
2022/07/27 10:11:05;;;;;;;8.13;7.28;;;26.50;54.70;;;;;;5002294;28;20430;-47
2022/07/27 10:13:30;;;;;;;9.43;8.52;;;26.50;54.20;;;;;;5002214;28;20037;-48
2022/07/27 10:15:58;;;;;;;8.60;7.80;;;26.50;54.10;;;;;;5001946;28;20030;-48
2022/07/27 10:18:47;;;;;;;8.88;7.95;;;26.50;54.10;;;;;;5002348;28;20544;-47
2022/07/27 10:21:13;;;;;;;8.27;7.47;;;26.50;54.10;;;;;;5001946;28;20617;-48
2022/07/27 10:23:39;;;;;;;9.50;8.60;;;26.50;54.10;;;;;;4999131;28;20157;-47
2022/07/27 10:26:20;;;;;;;9.52;8.50;;;26.50;54.10;;;;;;4992118;28;20034;-51
2022/07/27 10:29:11;;;;;;;9.25;8.35;;;26.50;54.00;;;;;;5004623;28;20029;-47
2022/07/27 10:31:54;;;;;;;8.52;7.72;;;26.50;54.00;;;;;;4999418;28;20035;-48
2022/07/27 10:34:37;;;;;;;9.60;8.70;;;26.50;53.90;;;;;;5004480;28;20040;-47
2022/07/27 10:37:22;;;;;;;9.60;8.60;;;26.50;54.00;;;;;;5005688;28;20033;-48
2022/07/27 10:42:49;;;;;;;8.10;7.32;;;26.50;53.90;;;;;;5005831;28;20025;-48
2022/07/27 10:45:18;;;;;;;8.88;8.07;;;26.50;53.70;;;;;;5004108;28;20033;-47
2022/07/27 10:47:49;;;;;;;8.88;7.53;;;26.50;53.70;;;;;;5005781;28;20041;-47
2022/07/27 10:50:15;;;;;;;9.13;8.23;;;26.50;53.80;;;;;;5005551;28;20036;-47
2022/07/27 10:52:54;;;;;;;9.05;8.15;;;26.50;53.60;;;;;;5005657;28;20026;-48
2022/07/27 10:55:32;;;;;;;9.98;8.98;;;26.50;53.60;;;;;;5005166;28;20044;-48
2022/07/27 10:58:36;;;;;;;10.38;9.32;;;26.50;53.80;;;;;;5024464;28;20040;-48
2022/07/27 11:01:06;;;;;;;9.23;8.30;;;26.50;53.70;;;;;;5025243;28;20754;-47
2022/07/27 11:03:38;;;;;;;8.98;8.15;;;26.50;53.60;;;;;;5023210;28;20121;-48
2022/07/27 11:06:22;;;;;;;9.35;8.02;;;26.50;53.70;;;;;;5024838;28;20064;-47
2022/07/27 11:08:49;;;;;;;10.32;9.32;;;26.50;53.70;;;;;;5019187;28;20038;-47
2022/07/27 11:11:18;;;;;;;10.25;9.25;;;26.50;53.70;;;;;;5005536;28;20623;-47
2022/07/27 11:13:46;;;;;;;10.00;9.00;;;26.50;53.70;;;;;;4989938;28;20545;-47
2022/07/27 11:16:17;;;;;;;9.95;9.05;;;26.50;53.70;;;;;;4984939;28;20150;-48
2022/07/27 11:18:55;;;;;;;11.07;9.98;;;26.50;53.80;;;;;;5001729;28;20026;-47
2022/07/27 11:21:22;;;;;;;10.20;9.13;;;26.50;53.90;;;;;;5005632;28;20022;-48
2022/07/27 11:23:54;;;;;;;10.95;9.85;;;26.50;53.90;;;;;;5006008;28;20030;-48
2022/07/27 11:26:22;;;;;;;10.68;9.57;;;26.50;54.00;;;;;;5004502;28;20096;-47
2022/07/27 11:28:48;;;;;;;10.57;9.32;;;26.50;54.00;;;;;;5015661;28;20035;-48
2022/07/27 11:31:14;;;;;;;10.85;9.75;;;26.50;53.80;;;;;;5024926;28;20026;-48
2022/07/27 11:33:50;;;;;;;11.77;10.57;;;26.50;54.00;;;;;;5024240;28;20120;-48
2022/07/27 11:36:16;;;;;;;10.50;9.50;;;26.50;54.00;;;;;;5000697;28;20554;-47
2022/07/27 11:38:51;;;;;;;12.10;10.93;;;26.50;54.10;;;;;;4998154;28;20026;-47
2022/07/27 11:41:28;;;;;;;11.70;10.52;;;26.50;54.20;;;;;;5001408;28;20127;-47
2022/07/27 11:43:57;;;;;;;11.40;10.25;;;26.50;54.70;;;;;;5000965;28;20060;-47
2022/07/27 11:46:28;;;;;;;11.57;10.38;;;26.50;55.10;;;;;;5001285;28;20041;-47
2022/07/27 11:49:06;;;;;;;16.38;13.52;;;26.50;55.00;;;;;;5003788;28;20526;-47
2022/07/27 11:51:32;;;;;;;13.32;11.93;;;26.50;55.00;;;;;;4998804;28;20021;-47
2022/07/27 11:54:18;;;;;;;13.23;11.93;;;26.50;55.20;;;;;;5005069;28;20034;-48
2022/07/27 11:56:47;;;;;;;12.55;11.35;;;26.50;55.00;;;;;;5002132;28;20038;-48
2022/07/27 11:59:21;;;;;;;13.45;12.10;;;26.50;54.90;;;;;;5003184;28;20530;-48
2022/07/27 12:01:54;;;;;;;15.70;14.00;;;26.50;55.00;;;;;;5002100;28;20033;-49
2022/07/27 12:04:33;;;;;;;14.57;13.20;;;26.50;53.80;;;;;;5008818;28;20022;-48
2022/07/27 12:07:11;;;;;;;16.35;14.60;;;26.40;53.80;;;;;;5003505;28;20655;-47
2022/07/27 12:09:44;;;;;;;17.08;15.23;;;26.40;53.70;;;;;;5001573;28;20459;-46
2022/07/27 12:12:13;;;;;;;16.00;14.38;;;26.30;53.80;;;;;;5002200;28;20202;-47
2022/07/27 12:14:51;;;;;;;15.45;14.00;;;26.30;54.40;;;;;;5001371;28;20036;-47
2022/07/27 12:17:19;;;;;;;8.70;7.80;;;26.30;54.60;;;;;;5001511;28;20080;-47
2022/07/27 12:20:01;;;;;;;8.55;7.15;;;26.30;50.20;;;;;;5013014;28;20139;-47
2022/07/27 12:22:30;;;;;;;8.20;7.40;;;26.20;50.00;;;;;;5001064;28;20577;-47
2022/07/27 12:24:57;;;;;;;11.13;8.93;;;26.10;52.20;;;;;;5001406;28;20068;-47
2022/07/27 12:27:27;;;;;;;11.02;9.68;;;26.10;53.70;;;;;;5003786;28;20042;-47
2022/07/27 12:30:14;;;;;;;9.77;8.85;;;26.10;53.00;;;;;;5003855;28;20061;-48
2022/07/27 12:32:43;;;;;;;11.27;7.43;;;26.20;53.50;;;;;;4988010;28;20030;-48
2022/07/27 12:35:23;;;;;;;6.75;5.38;;;26.20;51.60;;;;;;5003069;28;20524;-47
2022/07/27 12:37:59;;;;;;;9.32;6.80;;;26.10;50.20;;;;;;5000681;28;20070;-47
2022/07/27 12:40:24;;;;;;;8.35;7.15;;;26.20;52.90;;;;;;4999239;28;20026;-48
2022/07/27 12:42:59;;;;;;;7.28;6.35;;;26.20;52.70;;;;;;5000040;28;20022;-46
2022/07/27 12:45:31;;;;;;;7.47;5.93;;;26.20;51.90;;;;;;5002374;28;20597;-46
2022/07/27 12:48:08;;;;;;;6.93;5.75;;;26.20;50.70;;;;;;5002437;28;20018;-46
2022/07/27 12:50:34;;;;;;;6.55;5.32;;;26.20;51.10;;;;;;5001894;28;20037;-46
2022/07/27 12:53:00;;;;;;;6.00;5.40;;;26.30;51.80;;;;;;5002976;28;20050;-46
2022/07/27 12:55:26;;;;;;;5.00;4.43;;;26.20;51.90;;;;;;5002231;28;20108;-46
2022/07/27 12:57:55;;;;;;;6.28;5.20;;;26.20;50.50;;;;;;5011988;28;20037;-49